• Join FlightAware (Why Join?)
  • Login
  • US Flag 
01:27PM EDT


 

Airport Tracker/Info


-or-


 

Live Flight TrackerFlight Track Log ✈ WEW1540 ✈ 29-Apr-2013 ✈ CYYN - CYQR

Flight Track Log - Related Links

Times and Time Zones

All times are in EDT time to prevent confusion due to time zone crossing. See the WEW1540 flight status page for this flight to view local times or setup timezone preferences in your user account.

Time Position Orientation Groundspeed Altitude Reporting Facility
EDT Latitude Longitude Course Direction KTS MPH feet Rate Location/Type
07:58PM 50.3000 -107.4667 78° East 130 150 8,700  Level Winnipeg Center
07:59PM 50.3167 -107.4167 62° Northeast 150 173 9,000 120 Climbing Winnipeg Center
08:00PM 50.3167 -107.3333 90° East 180 207 9,000  Level Winnipeg Center
08:01PM 50.3167 -107.2667 90° East 190 219 9,000  Level Winnipeg Center
08:02PM 50.3702 -107.0898 78° East  Level FlightAware Approximate
08:02PM 50.3500 -107.1833 58° Northeast 190 219 9,000  Level Winnipeg Center
08:03PM 50.3800 -107.0152 78° East  Level FlightAware Approximate
08:03PM 50.3667 -107.0833 75° East 190 219 9,000  Level Winnipeg Center
08:04PM 50.3898 -106.9405 78° East  Level FlightAware Approximate
08:04PM 50.3833 -107.0167 69° East 190 219 9,000  Level Winnipeg Center
08:05PM 50.3833 -106.9333 90° East 190 219 9,000  Level Winnipeg Center
08:06PM 50.4000 -106.8500 73° East 190 219 9,000  Level Winnipeg Center
08:07PM 50.4167 -106.7833 69° East 190 219 9,000  Level Winnipeg Center
08:08PM 50.4167 -106.7000 90° East 190 219 9,000  Level Winnipeg Center
08:09PM 50.4333 -106.6167 73° East 190 219 9,000  Level Winnipeg Center
08:10PM 50.4333 -106.5167 90° East 190 219 9,000  Level Winnipeg Center
08:11PM 50.4500 -106.4500 69° East 190 219 9,000  Level Winnipeg Center
08:12PM 50.4500 -106.3667 90° East 190 219 9,000  Level Winnipeg Center
08:13PM 50.4500 -106.2833 90° East 190 219 9,000  Level Winnipeg Center
08:14PM 50.4833 -106.2167 52° Northeast 190 219 9,000  Level Winnipeg Center
08:15PM 50.4833 -106.1333 90° East 200 230 9,000  Level Winnipeg Center
08:16PM 50.4833 -106.0500 90° East 200 230 9,000  Level Winnipeg Center
08:17PM 50.5167 -105.9833 52° Northeast 200 230 9,000  Level Winnipeg Center
08:18PM 50.5167 -105.8833 90° East 200 230 9,000  Level Winnipeg Center
08:19PM 50.5500 -105.8000 58° Northeast 200 230 9,000  Level Winnipeg Center
08:20PM 50.5500 -105.7167 90° East 200 230 9,000  Level Winnipeg Center
08:21PM 50.5667 -105.6167 75° East 200 230 9,000  Level Winnipeg Center
08:22PM 50.5667 -105.5333 90° East 190 219 9,000  Level Winnipeg Center
08:23PM 50.5667 -105.4667 90° East 200 230 9,000  Level Winnipeg Center
08:24PM 50.5667 -105.3833 90° East 190 219 9,000  Level Winnipeg Center
08:25PM 50.5500 -105.3000 107° East 200 230 9,000 -240 Level Winnipeg Center
08:26PM 50.5333 -105.2167 107° East 200 230 8,600 -360 Descending Winnipeg Center
08:27PM 50.5333 -105.1333 90° East 200 230 8,300 -600 Descending Winnipeg Center
08:28PM 50.5167 -105.0333 105° East 200 230 7,400 -1,200 Descending Winnipeg Center
08:29PM 50.4833 -104.9500 122° Southeast 210 242 6,000 -1,380 Descending Winnipeg Center
08:30PM 50.4833 -104.8667 90° East 210 242 4,700 -1,500 Descending Winnipeg Center
08:31PM 50.4500 -104.7833 122° Southeast 210 242 3,100 -840 Descending Winnipeg Center
08:32PM 50.4333 -104.7333 118° Southeast 160 184 3,100 -600 Level Winnipeg Center
08:33PM 50.4000 -104.7000 147° Southeast 110 127 2,000 -1,140 Descending Winnipeg Center